createdAt,value
2023-02-02T00:01:00.737Z,3.82
2023-02-02T00:04:04.164Z,3.72
2023-02-02T00:07:07.499Z,3.65
2023-02-02T00:10:10.660Z,3.63
2023-02-02T00:13:13.339Z,3.69
2023-02-02T00:16:31.125Z,3.60
2023-02-02T00:19:33.631Z,3.55
2023-02-02T00:22:36.227Z,3.53
2023-02-02T00:25:38.518Z,3.48
2023-02-02T00:28:41.339Z,3.36
2023-02-02T00:31:44.334Z,3.27
2023-02-02T00:34:47.168Z,3.29
2023-02-02T00:37:49.598Z,3.25
2023-02-02T00:40:52.557Z,3.18
2023-02-02T00:44:13.578Z,3.03
2023-02-02T00:47:16.867Z,2.98
2023-02-02T00:50:23.625Z,3.01
2023-02-02T00:53:26.272Z,3.15
2023-02-02T00:56:28.658Z,3.08
2023-02-02T00:59:31.481Z,3.31
2023-02-02T01:02:34.379Z,3.49
2023-02-02T01:05:39.400Z,3.72
2023-02-02T01:08:41.959Z,3.84
2023-02-02T01:11:44.692Z,3.84
2023-02-02T01:14:47.184Z,3.80
2023-02-02T01:17:49.827Z,3.80
2023-02-02T01:21:02.975Z,3.72
2023-02-02T01:24:05.931Z,3.72
2023-02-02T01:27:08.308Z,3.69
2023-02-02T01:30:11.490Z,3.69
2023-02-02T01:33:13.862Z,3.70
2023-02-02T01:36:17.708Z,3.62
2023-02-02T01:39:20.473Z,3.59
2023-02-02T01:42:23.556Z,3.57
2023-02-02T01:45:29.412Z,3.56
2023-02-02T01:48:36.471Z,3.51
2023-02-02T01:51:50.393Z,3.54
2023-02-02T01:54:56.446Z,3.52
2023-02-02T01:58:07.663Z,3.58
2023-02-02T02:01:11.884Z,3.68
2023-02-02T02:04:14.982Z,3.67
2023-02-02T02:07:19.660Z,3.67
2023-02-02T02:10:22.527Z,3.63
2023-02-02T02:13:47.399Z,3.71
2023-02-02T02:16:58.369Z,3.79
2023-02-02T02:20:38.079Z,3.78
2023-02-02T02:24:02.207Z,3.73
2023-02-02T02:27:33.589Z,3.72
2023-02-02T02:30:42.366Z,3.76
2023-02-02T02:33:49.152Z,3.77
2023-02-02T02:36:57.009Z,3.80
2023-02-02T02:39:59.799Z,3.77
2023-02-02T02:43:07.258Z,3.73
2023-02-02T02:46:10.450Z,3.65
2023-02-02T02:49:13.740Z,3.60
2023-02-02T02:52:16.343Z,3.54
2023-02-02T02:55:19.346Z,3.53
2023-02-02T02:58:29.331Z,3.53
2023-02-02T03:01:40.257Z,3.55
2023-02-02T03:05:03.324Z,3.54
2023-02-02T03:08:20.373Z,3.50
2023-02-02T03:11:22.862Z,3.51
2023-02-02T03:14:25.546Z,3.53
2023-02-02T03:17:28.163Z,3.54
2023-02-02T03:20:31.005Z,3.55
2023-02-02T03:23:34.177Z,3.53
2023-02-02T03:26:37.530Z,3.44
2023-02-02T03:29:39.893Z,3.44
2023-02-02T03:32:42.896Z,3.39
2023-02-02T03:35:45.357Z,3.35
2023-02-02T03:38:48.293Z,3.33
2023-02-02T03:41:50.624Z,3.36
2023-02-02T03:44:53.500Z,3.32
2023-02-02T03:47:55.829Z,3.24
2023-02-02T03:50:58.458Z,3.19
2023-02-02T03:54:00.813Z,3.20
2023-02-02T03:57:03.673Z,3.13
2023-02-02T04:00:06.500Z,3.11
2023-02-02T04:03:14.571Z,3.02
2023-02-02T04:06:19.814Z,3.00
2023-02-02T04:09:22.206Z,2.99
2023-02-02T04:12:25.172Z,2.95
2023-02-02T04:15:27.665Z,2.84
2023-02-02T04:18:30.504Z,2.71
2023-02-02T04:21:32.930Z,2.72
2023-02-02T04:24:37.775Z,2.76
2023-02-02T04:27:40.491Z,2.73
2023-02-02T04:30:43.697Z,2.76
2023-02-02T04:33:46.127Z,2.74
2023-02-02T04:36:48.771Z,2.70
2023-02-02T04:39:51.257Z,2.67
2023-02-02T04:42:54.011Z,2.71
2023-02-02T04:45:57.116Z,2.69
2023-02-02T04:48:59.790Z,2.70
2023-02-02T04:52:02.207Z,2.69
2023-02-02T04:55:04.797Z,2.69
2023-02-02T04:58:07.269Z,2.63
2023-02-02T05:01:17.783Z,2.59
2023-02-02T05:04:20.124Z,2.52
2023-02-02T05:07:22.888Z,2.44
2023-02-02T05:10:25.461Z,2.48
2023-02-02T05:13:28.066Z,2.41
2023-02-02T05:16:30.384Z,2.19
2023-02-02T05:19:33.214Z,2.06
2023-02-02T05:22:35.765Z,2.28
2023-02-02T05:25:38.376Z,2.36
2023-02-02T05:28:42.084Z,2.32
2023-02-02T05:31:44.790Z,2.39
2023-02-02T05:34:47.204Z,2.39
2023-02-02T05:37:50.025Z,2.36
2023-02-02T05:40:53.196Z,2.41
2023-02-02T05:43:55.879Z,2.44
2023-02-02T05:46:58.313Z,2.40
2023-02-02T05:50:02.466Z,2.43
2023-02-02T05:53:04.985Z,2.29
2023-02-02T05:56:07.685Z,2.12
2023-02-02T05:59:10.257Z,2.04
2023-02-02T06:02:12.879Z,1.98
2023-02-02T06:05:15.609Z,2.17
2023-02-02T06:08:17.913Z,2.26
2023-02-02T06:11:20.812Z,2.12
2023-02-02T06:14:23.180Z,2.09
2023-02-02T06:17:25.807Z,2.15
2023-02-02T06:20:28.537Z,2.05
2023-02-02T06:23:31.267Z,2.08
2023-02-02T06:26:33.741Z,2.09
2023-02-02T06:29:36.497Z,2.18
2023-02-02T06:32:39.188Z,2.18
2023-02-02T06:35:41.915Z,2.19
2023-02-02T06:38:44.334Z,2.24
2023-02-02T06:41:48.295Z,2.21
2023-02-02T06:44:50.718Z,2.13
2023-02-02T06:47:53.360Z,2.21
2023-02-02T06:50:59.618Z,2.23
2023-02-02T06:54:04.793Z,2.40
2023-02-02T06:57:07.181Z,2.50
2023-02-02T07:00:10.367Z,2.52
2023-02-02T07:03:13.331Z,2.59
2023-02-02T07:06:16.160Z,2.68
2023-02-02T07:09:18.853Z,2.75
2023-02-02T07:12:21.536Z,2.84
2023-02-02T07:15:24.532Z,2.85
2023-02-02T07:18:27.404Z,2.89
2023-02-02T07:21:35.475Z,2.94
2023-02-02T07:24:38.292Z,2.95
2023-02-02T07:27:40.645Z,3.03
2023-02-02T07:30:43.315Z,3.04
2023-02-02T07:33:46.619Z,3.23
2023-02-02T07:36:49.397Z,3.39
2023-02-02T07:39:51.701Z,3.64
2023-02-02T07:42:54.299Z,4.26
2023-02-02T07:46:04.310Z,5.33
2023-02-02T07:49:07.317Z,6.98
2023-02-02T07:52:09.665Z,6.39
2023-02-02T07:55:26.463Z,5.77
2023-02-02T07:58:29.321Z,5.64
2023-02-02T08:01:32.033Z,5.60
2023-02-02T08:04:34.774Z,5.50
2023-02-02T08:07:37.067Z,5.34
2023-02-02T08:10:39.775Z,5.31
2023-02-02T08:13:43.106Z,5.68
2023-02-02T08:16:45.688Z,7.62
2023-02-02T08:19:47.948Z,9.29
2023-02-02T08:22:50.767Z,8.05
2023-02-02T08:25:53.649Z,7.61
2023-02-02T08:29:00.678Z,7.55
2023-02-02T08:32:03.944Z,7.15
2023-02-02T08:35:06.747Z,6.62
2023-02-02T08:38:09.435Z,6.24
2023-02-02T08:41:13.388Z,6.04
2023-02-02T08:44:16.114Z,5.94
2023-02-02T08:47:18.764Z,6.00
2023-02-02T08:50:21.651Z,6.01
2023-02-02T08:53:24.932Z,5.99
2023-02-02T08:56:27.419Z,5.91
2023-02-02T08:59:30.010Z,5.93
2023-02-02T09:02:32.836Z,6.20
2023-02-02T09:05:35.726Z,6.26
2023-02-02T09:08:38.585Z,6.41
2023-02-02T09:11:41.575Z,6.39
2023-02-02T09:14:43.984Z,6.51
2023-02-02T09:17:46.593Z,6.64
2023-02-02T09:20:49.114Z,6.77
2023-02-02T09:23:53.805Z,6.56
2023-02-02T09:26:56.326Z,6.49
2023-02-02T09:29:59.044Z,6.51
2023-02-02T09:33:01.424Z,6.89
2023-02-02T09:36:08.943Z,6.84
2023-02-02T09:39:12.910Z,7.02
2023-02-02T09:42:15.783Z,6.80
2023-02-02T09:45:36.997Z,6.76
2023-02-02T09:49:11.881Z,6.83
2023-02-02T09:52:17.490Z,7.02
2023-02-02T09:55:23.856Z,7.01
2023-02-02T09:58:33.788Z,7.25
2023-02-02T10:01:37.939Z,7.58
2023-02-02T10:04:43.865Z,7.55
2023-02-02T10:07:48.689Z,7.44
2023-02-02T10:10:51.940Z,7.19
2023-02-02T10:13:58.004Z,7.46
2023-02-02T10:17:06.402Z,7.13
2023-02-02T10:20:16.955Z,7.02
2023-02-02T10:23:25.049Z,7.13
2023-02-02T10:26:38.677Z,7.16
2023-02-02T10:29:58.532Z,7.03
2023-02-02T10:33:05.885Z,6.50
2023-02-02T10:36:18.633Z,6.29
2023-02-02T10:39:27.105Z,6.22
2023-02-02T10:42:30.597Z,6.17
2023-02-02T10:45:33.540Z,6.09
2023-02-02T10:48:36.249Z,6.19
2023-02-02T10:51:40.734Z,6.36
2023-02-02T10:55:04.435Z,6.38
2023-02-02T10:58:12.978Z,6.47
2023-02-02T11:01:18.199Z,6.49
2023-02-02T11:04:40.899Z,6.47
2023-02-02T11:07:43.582Z,6.50
2023-02-02T11:10:46.990Z,6.64
2023-02-02T11:13:55.812Z,6.61
2023-02-02T11:17:05.448Z,6.70
2023-02-02T11:20:25.761Z,6.70
2023-02-02T11:23:28.727Z,6.90
2023-02-02T11:26:47.539Z,7.09
2023-02-02T11:29:52.034Z,7.19
2023-02-02T11:32:55.902Z,7.18
2023-02-02T11:35:59.871Z,7.33
2023-02-02T11:39:15.441Z,7.42
2023-02-02T11:42:20.220Z,7.28
2023-02-02T11:45:29.290Z,7.25
2023-02-02T11:48:36.809Z,7.26
2023-02-02T11:51:39.571Z,7.08
2023-02-02T11:54:45.749Z,6.92
2023-02-02T11:58:07.107Z,7.01
2023-02-02T12:01:16.372Z,6.93
2023-02-02T12:04:19.036Z,6.92
2023-02-02T12:07:47.638Z,6.81
2023-02-02T12:10:59.084Z,6.65
2023-02-02T12:14:20.083Z,6.36
2023-02-02T12:17:25.475Z,6.41
2023-02-02T12:20:35.231Z,6.43
2023-02-02T12:23:40.674Z,6.41
2023-02-02T12:26:48.898Z,6.44
2023-02-02T12:29:54.701Z,6.31
2023-02-02T12:33:00.403Z,6.30
2023-02-02T12:36:09.087Z,6.27
2023-02-02T12:39:26.535Z,6.28
2023-02-02T12:42:35.103Z,6.28
2023-02-02T12:45:38.003Z,6.29
2023-02-02T12:48:43.472Z,6.27
2023-02-02T12:51:45.811Z,6.22
2023-02-02T12:54:57.761Z,6.13
2023-02-02T12:58:00.377Z,6.12
2023-02-02T13:01:10.584Z,6.09
2023-02-02T13:07:57.120Z,6.18
2023-02-02T13:11:28.984Z,6.16
2023-02-02T13:14:34.694Z,6.12
2023-02-02T13:17:40.920Z,6.17
2023-02-02T13:20:46.454Z,6.08
2023-02-02T13:23:50.606Z,6.14
2023-02-02T13:26:54.091Z,6.17
2023-02-02T13:30:01.687Z,6.16
2023-02-02T13:33:13.636Z,6.09
2023-02-02T13:36:25.551Z,6.08
2023-02-02T13:39:38.577Z,6.04
2023-02-02T13:42:47.875Z,6.08
2023-02-02T13:45:55.628Z,6.11
2023-02-02T13:49:10.959Z,6.16
2023-02-02T13:52:17.045Z,6.13
2023-02-02T13:55:31.720Z,6.13
2023-02-02T13:58:34.641Z,6.26
2023-02-02T14:01:37.150Z,6.30
2023-02-02T14:04:39.827Z,6.37
2023-02-02T14:07:44.122Z,6.52
2023-02-02T14:10:52.974Z,6.57
2023-02-02T14:14:17.174Z,6.49
2023-02-02T14:17:22.910Z,6.39
2023-02-02T14:20:45.569Z,6.22
2023-02-02T14:23:55.490Z,6.16
2023-02-02T14:26:59.177Z,6.04
2023-02-02T14:30:14.173Z,6.00
2023-02-02T14:33:22.540Z,5.93
2023-02-02T14:36:26.132Z,5.91
2023-02-02T14:39:30.253Z,5.92
2023-02-02T14:43:06.891Z,5.82
2023-02-02T14:46:12.645Z,5.79
2023-02-02T14:49:17.131Z,5.79
2023-02-02T14:52:21.707Z,5.82
2023-02-02T14:55:24.939Z,5.82
2023-02-02T14:58:34.184Z,5.83
2023-02-02T15:01:37.969Z,5.80
2023-02-02T15:04:40.456Z,5.85
2023-02-02T15:07:53.386Z,5.85
2023-02-02T15:10:57.712Z,5.76
2023-02-02T15:14:07.077Z,5.70
2023-02-02T15:17:24.344Z,5.63
2023-02-02T15:20:27.057Z,5.62
2023-02-02T15:23:29.407Z,5.56
2023-02-02T15:26:34.323Z,5.52
2023-02-02T15:29:44.269Z,5.49
2023-02-02T15:32:47.503Z,5.49
2023-02-02T15:35:49.896Z,5.44
2023-02-02T15:38:54.267Z,5.38
2023-02-02T15:42:17.240Z,5.32
2023-02-02T15:45:39.833Z,5.33
2023-02-02T15:48:43.785Z,5.35
2023-02-02T15:51:48.964Z,5.26
2023-02-02T15:54:55.241Z,5.21
2023-02-02T15:57:58.022Z,5.16
2023-02-02T16:01:05.908Z,5.06
2023-02-02T16:04:14.600Z,4.90
2023-02-02T16:07:23.290Z,4.79
2023-02-02T16:10:26.251Z,4.74
2023-02-02T16:13:28.836Z,4.72
2023-02-02T16:16:32.810Z,4.68
2023-02-02T16:19:35.406Z,4.67
2023-02-02T16:22:39.295Z,4.66
2023-02-02T16:25:48.386Z,4.67
2023-02-02T16:28:51.453Z,4.71
2023-02-02T16:31:54.296Z,4.72
2023-02-02T16:34:57.307Z,4.79
2023-02-02T16:38:17.762Z,4.67
2023-02-02T16:41:27.886Z,4.58
2023-02-02T16:44:36.401Z,4.47
2023-02-02T16:47:39.144Z,4.37
2023-02-02T16:50:41.610Z,4.42
2023-02-02T16:53:45.116Z,4.40
2023-02-02T16:56:49.809Z,4.42
2023-02-02T16:59:54.341Z,4.41
2023-02-02T17:03:00.187Z,4.40
2023-02-02T17:06:03.832Z,4.49
2023-02-02T17:09:24.909Z,4.38
2023-02-02T17:12:35.393Z,4.27
2023-02-02T17:15:37.973Z,4.15
2023-02-02T17:18:40.888Z,4.15
2023-02-02T17:21:43.328Z,4.20
2023-02-02T17:24:49.483Z,4.15
2023-02-02T17:27:53.656Z,4.14
2023-02-02T17:31:01.459Z,4.07
2023-02-02T17:34:09.705Z,4.02
2023-02-02T17:37:12.621Z,4.05
2023-02-02T17:40:16.632Z,4.05
2023-02-02T17:43:19.310Z,4.07
2023-02-02T17:46:21.702Z,4.01
2023-02-02T17:49:24.568Z,3.93
2023-02-02T17:52:27.044Z,3.92
2023-02-02T17:55:31.761Z,3.92
2023-02-02T17:58:34.450Z,3.89
2023-02-02T18:01:39.367Z,3.87
2023-02-02T18:04:45.268Z,3.86
2023-02-02T18:07:47.918Z,3.81
2023-02-02T18:10:50.828Z,3.73
2023-02-02T18:13:53.279Z,3.75
2023-02-02T18:16:56.181Z,3.72
2023-02-02T18:19:58.606Z,3.73
2023-02-02T18:23:01.734Z,3.73
2023-02-02T18:26:14.580Z,3.81
2023-02-02T18:29:17.501Z,3.72
2023-02-02T18:32:20.036Z,3.66
2023-02-02T18:35:22.893Z,3.59
2023-02-02T18:38:26.275Z,3.56
2023-02-02T18:41:29.515Z,3.54
2023-02-02T18:44:34.453Z,3.51
2023-02-02T18:47:37.220Z,3.56
2023-02-02T18:50:39.900Z,3.51
2023-02-02T18:53:43.475Z,3.45
2023-02-02T18:56:46.048Z,3.43
2023-02-02T18:59:49.839Z,3.50
2023-02-02T19:02:53.667Z,3.46
2023-02-02T19:06:15.800Z,3.45
2023-02-02T19:09:18.438Z,3.42
2023-02-02T19:12:26.792Z,3.38
2023-02-02T19:15:31.456Z,3.42
2023-02-02T19:18:34.357Z,3.38
2023-02-02T19:21:36.997Z,3.34
2023-02-02T19:24:40.405Z,3.34
2023-02-02T19:27:43.072Z,3.37
2023-02-02T19:30:46.032Z,3.36
2023-02-02T19:33:50.249Z,3.46
2023-02-02T19:36:53.116Z,3.41
2023-02-02T19:39:56.523Z,3.39
2023-02-02T19:43:08.182Z,3.32
2023-02-02T19:46:15.495Z,3.24
2023-02-02T19:49:24.716Z,3.17
2023-02-02T19:52:27.718Z,3.14
2023-02-02T19:55:35.765Z,3.17
2023-02-02T19:58:38.401Z,3.17
2023-02-02T20:01:45.849Z,3.05
2023-02-02T20:04:53.200Z,3.04
2023-02-02T20:08:00.350Z,2.98
2023-02-02T20:11:15.763Z,2.89
2023-02-02T20:14:18.804Z,2.96
2023-02-02T20:17:28.932Z,2.92
2023-02-02T20:20:39.371Z,2.92
2023-02-02T20:23:43.620Z,2.81
2023-02-02T20:26:46.423Z,2.80
2023-02-02T20:29:51.035Z,2.75
2023-02-02T20:32:55.522Z,2.68
2023-02-02T20:35:59.074Z,2.73
2023-02-02T20:39:22.041Z,2.74
2023-02-02T20:42:25.261Z,2.75
2023-02-02T20:45:27.895Z,2.72
2023-02-02T20:48:30.882Z,2.71
2023-02-02T20:51:33.486Z,2.61
2023-02-02T20:54:36.957Z,2.56
2023-02-02T20:57:40.286Z,2.56
2023-02-02T21:00:43.006Z,2.52
2023-02-02T21:03:45.957Z,2.43
2023-02-02T21:06:49.367Z,2.39
2023-02-02T21:09:51.938Z,2.38
2023-02-02T21:12:54.984Z,2.32
2023-02-02T21:15:57.349Z,2.29
2023-02-02T21:19:00.869Z,2.25
2023-02-02T21:22:03.506Z,2.21
2023-02-02T21:25:06.544Z,2.14
2023-02-02T21:28:08.889Z,2.06
2023-02-02T21:31:12.906Z,2.02
2023-02-02T21:34:17.346Z,2.00
2023-02-02T21:37:20.019Z,2.06
2023-02-02T21:40:27.672Z,2.08
2023-02-02T21:43:32.817Z,2.08
2023-02-02T21:46:37.180Z,2.10
2023-02-02T21:49:40.005Z,2.13
2023-02-02T21:52:42.383Z,2.10
2023-02-02T21:55:46.165Z,2.08
2023-02-02T21:58:48.575Z,2.07
2023-02-02T22:01:51.968Z,2.09
2023-02-02T22:04:57.640Z,2.10
2023-02-02T22:08:01.239Z,2.16
2023-02-02T22:11:04.061Z,2.17
2023-02-02T22:14:18.757Z,2.21
2023-02-02T22:17:25.873Z,2.22
2023-02-02T22:20:32.003Z,2.17
2023-02-02T22:23:34.803Z,2.12
2023-02-02T22:26:37.120Z,2.07
2023-02-02T22:29:39.879Z,2.11
2023-02-02T22:32:42.577Z,2.05
2023-02-02T22:35:46.254Z,1.97
2023-02-02T22:38:48.674Z,1.96
2023-02-02T22:41:51.679Z,2.02
2023-02-02T22:44:54.055Z,1.94
2023-02-02T22:47:56.671Z,1.92
2023-02-02T22:50:59.060Z,1.89
2023-02-02T22:54:01.752Z,1.93
2023-02-02T22:57:04.064Z,1.91
2023-02-02T23:00:12.748Z,1.87
2023-02-02T23:03:15.285Z,1.88
2023-02-02T23:06:17.887Z,1.79
2023-02-02T23:09:20.387Z,1.81
2023-02-02T23:12:23.249Z,1.80
2023-02-02T23:15:25.937Z,1.66
2023-02-02T23:18:28.597Z,1.73
2023-02-02T23:21:31.744Z,1.67
2023-02-02T23:24:34.347Z,1.66
2023-02-02T23:27:36.760Z,1.69
2023-02-02T23:30:39.480Z,1.73
2023-02-02T23:33:41.951Z,1.68
2023-02-02T23:36:44.610Z,1.63
2023-02-02T23:39:46.997Z,1.56
2023-02-02T23:42:49.622Z,1.47
2023-02-02T23:45:52.150Z,1.36
2023-02-02T23:48:54.863Z,1.29
2023-02-02T23:51:57.263Z,1.30
2023-02-02T23:55:01.478Z,1.34
2023-02-02T23:58:03.865Z,1.36
